sensor_id;sensor_type;location;lat;lon;timestamp;temperature;humidity
26304;DHT22;57113;48.680;8.890;2022-11-10T00:00:01;14.20;99.90
26304;DHT22;57113;48.680;8.890;2022-11-10T00:02:28;14.10;99.90
26304;DHT22;57113;48.680;8.890;2022-11-10T00:04:53;14.10;99.90
26304;DHT22;57113;48.680;8.890;2022-11-10T00:07:22;14.10;99.90
26304;DHT22;57113;48.680;8.890;2022-11-10T00:09:48;14.20;99.90
26304;DHT22;57113;48.680;8.890;2022-11-10T00:12:13;14.10;99.90
26304;DHT22;57113;48.680;8.890;2022-11-10T00:14:39;14.10;99.90
26304;DHT22;57113;48.680;8.890;2022-11-10T00:17:23;14.10;99.90
26304;DHT22;57113;48.680;8.890;2022-11-10T00:19:48;14.10;99.90
26304;DHT22;57113;48.680;8.890;2022-11-10T01:56:46;14.10;99.90
26304;DHT22;57113;48.680;8.890;2022-11-10T01:59:14;14.00;99.90
26304;DHT22;57113;48.680;8.890;2022-11-10T02:01:40;14.00;99.90
26304;DHT22;57113;48.680;8.890;2022-11-10T02:04:10;14.00;99.90
26304;DHT22;57113;48.680;8.890;2022-11-10T02:06:40;14.00;99.90
26304;DHT22;57113;48.680;8.890;2022-11-10T02:09:06;14.00;99.90
26304;DHT22;57113;48.680;8.890;2022-11-10T02:11:31;14.00;99.90
26304;DHT22;57113;48.680;8.890;2022-11-10T02:13:57;14.00;99.90
26304;DHT22;57113;48.680;8.890;2022-11-10T02:16:23;14.00;99.90
26304;DHT22;57113;48.680;8.890;2022-11-10T02:18:49;14.00;99.90
26304;DHT22;57113;48.680;8.890;2022-11-10T02:21:15;14.00;99.90
26304;DHT22;57113;48.680;8.890;2022-11-10T02:23:44;14.00;99.90
26304;DHT22;57113;48.680;8.890;2022-11-10T02:41:25;13.90;99.90
26304;DHT22;57113;48.680;8.890;2022-11-10T02:43:52;13.90;99.90
26304;DHT22;57113;48.680;8.890;2022-11-10T02:46:17;13.90;99.90
26304;DHT22;57113;48.680;8.890;2022-11-10T02:48:44;13.90;99.90
26304;DHT22;57113;48.680;8.890;2022-11-10T02:51:10;13.90;99.90
26304;DHT22;57113;48.680;8.890;2022-11-10T02:53:36;13.90;99.90
26304;DHT22;57113;48.680;8.890;2022-11-10T02:56:01;13.90;99.90
26304;DHT22;57113;48.680;8.890;2022-11-10T02:58:27;13.90;99.90
26304;DHT22;57113;48.680;8.890;2022-11-10T03:00:52;13.90;99.90
26304;DHT22;57113;48.680;8.890;2022-11-10T03:03:18;13.90;99.90
26304;DHT22;57113;48.680;8.890;2022-11-10T03:05:43;13.90;99.90
26304;DHT22;57113;48.680;8.890;2022-11-10T03:08:09;13.90;99.90
26304;DHT22;57113;48.680;8.890;2022-11-10T03:10:34;13.90;99.90
26304;DHT22;57113;48.680;8.890;2022-11-10T03:13:00;13.90;99.90
26304;DHT22;57113;48.680;8.890;2022-11-10T03:15:26;13.90;99.90
26304;DHT22;57113;48.680;8.890;2022-11-10T03:17:51;13.90;99.90
26304;DHT22;57113;48.680;8.890;2022-11-10T03:20:17;13.90;99.90
26304;DHT22;57113;48.680;8.890;2022-11-10T03:22:43;13.90;99.90
26304;DHT22;57113;48.680;8.890;2022-11-10T03:25:09;13.90;99.90
26304;DHT22;57113;48.680;8.890;2022-11-10T03:27:34;13.90;99.90
26304;DHT22;57113;48.680;8.890;2022-11-10T03:30:00;13.90;99.90
26304;DHT22;57113;48.680;8.890;2022-11-10T03:32:25;13.90;99.90
26304;DHT22;57113;48.680;8.890;2022-11-10T03:34:51;13.90;99.90
26304;DHT22;57113;48.680;8.890;2022-11-10T03:37:16;13.90;99.90
26304;DHT22;57113;48.680;8.890;2022-11-10T03:39:42;13.90;99.90
26304;DHT22;57113;48.680;8.890;2022-11-10T03:42:08;13.90;99.90
26304;DHT22;57113;48.680;8.890;2022-11-10T03:44:33;13.80;99.90
26304;DHT22;57113;48.680;8.890;2022-11-10T03:46:59;13.80;99.90
26304;DHT22;57113;48.680;8.890;2022-11-10T03:49:27;13.90;99.90
26304;DHT22;57113;48.680;8.890;2022-11-10T03:51:52;13.90;99.90
26304;DHT22;57113;48.680;8.890;2022-11-10T03:54:18;13.80;99.90
26304;DHT22;57113;48.680;8.890;2022-11-10T03:56:43;13.80;99.90
26304;DHT22;57113;48.680;8.890;2022-11-10T03:59:09;13.80;99.90
26304;DHT22;57113;48.680;8.890;2022-11-10T04:01:34;13.80;99.90
26304;DHT22;57113;48.680;8.890;2022-11-10T04:04:00;13.80;99.90
26304;DHT22;57113;48.680;8.890;2022-11-10T04:06:25;13.80;99.90
26304;DHT22;57113;48.680;8.890;2022-11-10T04:09:09;13.80;99.90
26304;DHT22;57113;48.680;8.890;2022-11-10T04:11:35;13.80;99.90
26304;DHT22;57113;48.680;8.890;2022-11-10T04:14:19;13.80;99.90
26304;DHT22;57113;48.680;8.890;2022-11-10T04:17:03;13.80;99.90
26304;DHT22;57113;48.680;8.890;2022-11-10T04:19:29;13.80;99.90
26304;DHT22;57113;48.680;8.890;2022-11-10T04:21:55;13.80;99.90
26304;DHT22;57113;48.680;8.890;2022-11-10T04:24:21;13.80;99.90
26304;DHT22;57113;48.680;8.890;2022-11-10T04:26:47;13.80;99.90
26304;DHT22;57113;48.680;8.890;2022-11-10T04:29:13;13.80;99.90
26304;DHT22;57113;48.680;8.890;2022-11-10T04:31:39;13.80;99.90
26304;DHT22;57113;48.680;8.890;2022-11-10T04:34:05;13.80;99.90
26304;DHT22;57113;48.680;8.890;2022-11-10T04:36:32;13.80;99.90
26304;DHT22;57113;48.680;8.890;2022-11-10T04:38:58;13.80;99.90
26304;DHT22;57113;48.680;8.890;2022-11-10T04:41:24;13.80;99.90
26304;DHT22;57113;48.680;8.890;2022-11-10T04:43:49;13.80;99.90
26304;DHT22;57113;48.680;8.890;2022-11-10T04:48:40;13.80;99.90
26304;DHT22;57113;48.680;8.890;2022-11-10T04:51:06;13.80;99.90
26304;DHT22;57113;48.680;8.890;2022-11-10T04:53:32;13.80;99.90
26304;DHT22;57113;48.680;8.890;2022-11-10T04:55:57;13.70;99.90
26304;DHT22;57113;48.680;8.890;2022-11-10T04:58:23;13.80;99.90
26304;DHT22;57113;48.680;8.890;2022-11-10T05:00:48;13.70;99.90
26304;DHT22;57113;48.680;8.890;2022-11-10T05:03:14;13.80;99.90
26304;DHT22;57113;48.680;8.890;2022-11-10T05:05:39;13.70;99.90
26304;DHT22;57113;48.680;8.890;2022-11-10T05:08:05;13.70;99.90
26304;DHT22;57113;48.680;8.890;2022-11-10T05:10:32;13.70;99.90
26304;DHT22;57113;48.680;8.890;2022-11-10T05:12:57;13.70;99.90
26304;DHT22;57113;48.680;8.890;2022-11-10T05:15:23;13.70;99.90
26304;DHT22;57113;48.680;8.890;2022-11-10T05:17:49;13.70;99.90
26304;DHT22;57113;48.680;8.890;2022-11-10T05:20:16;13.70;99.90
26304;DHT22;57113;48.680;8.890;2022-11-10T05:22:47;13.70;99.90
26304;DHT22;57113;48.680;8.890;2022-11-10T05:25:34;13.70;99.90
26304;DHT22;57113;48.680;8.890;2022-11-10T05:28:00;13.70;99.90
26304;DHT22;57113;48.680;8.890;2022-11-10T05:30:26;13.70;99.90
26304;DHT22;57113;48.680;8.890;2022-11-10T05:32:51;13.70;99.90
26304;DHT22;57113;48.680;8.890;2022-11-10T05:35:17;13.70;99.90
26304;DHT22;57113;48.680;8.890;2022-11-10T05:37:43;13.70;99.90
26304;DHT22;57113;48.680;8.890;2022-11-10T05:40:08;13.70;99.90
26304;DHT22;57113;48.680;8.890;2022-11-10T05:42:41;13.70;99.90
26304;DHT22;57113;48.680;8.890;2022-11-10T05:45:06;13.70;99.90
26304;DHT22;57113;48.680;8.890;2022-11-10T05:47:34;13.70;99.90
26304;DHT22;57113;48.680;8.890;2022-11-10T05:50:00;13.70;99.90
26304;DHT22;57113;48.680;8.890;2022-11-10T05:52:26;13.60;99.90
26304;DHT22;57113;48.680;8.890;2022-11-10T05:54:51;13.60;99.90
26304;DHT22;57113;48.680;8.890;2022-11-10T05:57:19;13.60;99.90
26304;DHT22;57113;48.680;8.890;2022-11-10T05:59:45;13.60;99.90
26304;DHT22;57113;48.680;8.890;2022-11-10T06:02:11;13.60;99.90
26304;DHT22;57113;48.680;8.890;2022-11-10T06:04:36;13.60;99.90
26304;DHT22;57113;48.680;8.890;2022-11-10T06:07:02;13.60;99.90
26304;DHT22;57113;48.680;8.890;2022-11-10T06:09:28;13.60;99.90
26304;DHT22;57113;48.680;8.890;2022-11-10T06:11:53;13.60;99.90
26304;DHT22;57113;48.680;8.890;2022-11-10T06:14:19;13.60;99.90
26304;DHT22;57113;48.680;8.890;2022-11-10T06:16:44;13.70;99.90
26304;DHT22;57113;48.680;8.890;2022-11-10T06:19:10;13.60;99.90
26304;DHT22;57113;48.680;8.890;2022-11-10T06:21:36;13.60;99.90
26304;DHT22;57113;48.680;8.890;2022-11-10T06:24:01;13.60;99.90
26304;DHT22;57113;48.680;8.890;2022-11-10T06:26:27;13.60;99.90
26304;DHT22;57113;48.680;8.890;2022-11-10T06:28:52;13.60;99.90
26304;DHT22;57113;48.680;8.890;2022-11-10T06:31:18;13.60;99.90
26304;DHT22;57113;48.680;8.890;2022-11-10T06:33:43;13.60;99.90
26304;DHT22;57113;48.680;8.890;2022-11-10T06:36:08;13.60;99.90
26304;DHT22;57113;48.680;8.890;2022-11-10T06:38:34;13.60;99.90
26304;DHT22;57113;48.680;8.890;2022-11-10T06:40:59;13.60;99.90
26304;DHT22;57113;48.680;8.890;2022-11-10T06:43:25;13.60;99.90
26304;DHT22;57113;48.680;8.890;2022-11-10T06:45:50;13.60;99.90
26304;DHT22;57113;48.680;8.890;2022-11-10T06:48:16;13.60;99.90
26304;DHT22;57113;48.680;8.890;2022-11-10T06:50:42;13.60;99.90
26304;DHT22;57113;48.680;8.890;2022-11-10T06:53:08;13.60;99.90
26304;DHT22;57113;48.680;8.890;2022-11-10T06:55:33;13.60;99.90
26304;DHT22;57113;48.680;8.890;2022-11-10T06:57:59;13.60;99.90
26304;DHT22;57113;48.680;8.890;2022-11-10T07:00:25;13.50;99.90
26304;DHT22;57113;48.680;8.890;2022-11-10T07:03:01;13.60;99.90
26304;DHT22;57113;48.680;8.890;2022-11-10T07:05:27;13.50;99.90
26304;DHT22;57113;48.680;8.890;2022-11-10T07:07:53;13.60;99.90
26304;DHT22;57113;48.680;8.890;2022-11-10T07:10:18;13.60;99.90
26304;DHT22;57113;48.680;8.890;2022-11-10T07:12:43;13.60;99.90
26304;DHT22;57113;48.680;8.890;2022-11-10T07:15:09;13.60;99.90
26304;DHT22;57113;48.680;8.890;2022-11-10T07:17:41;13.60;99.90
26304;DHT22;57113;48.680;8.890;2022-11-10T07:20:06;13.60;99.90
26304;DHT22;57113;48.680;8.890;2022-11-10T07:22:32;13.70;99.90
26304;DHT22;57113;48.680;8.890;2022-11-10T07:24:57;13.70;99.90
26304;DHT22;57113;48.680;8.890;2022-11-10T07:27:23;13.70;99.90
26304;DHT22;57113;48.680;8.890;2022-11-10T07:29:49;13.80;99.90
26304;DHT22;57113;48.680;8.890;2022-11-10T07:32:14;13.80;99.90
26304;DHT22;57113;48.680;8.890;2022-11-10T07:34:40;13.80;99.90
26304;DHT22;57113;48.680;8.890;2022-11-10T07:37:06;13.90;99.90
26304;DHT22;57113;48.680;8.890;2022-11-10T07:39:32;13.90;99.90
26304;DHT22;57113;48.680;8.890;2022-11-10T07:41:57;13.90;99.90
26304;DHT22;57113;48.680;8.890;2022-11-10T07:44:23;13.90;99.90
26304;DHT22;57113;48.680;8.890;2022-11-10T07:46:48;14.00;99.90
26304;DHT22;57113;48.680;8.890;2022-11-10T07:49:14;14.00;99.90
26304;DHT22;57113;48.680;8.890;2022-11-10T07:51:41;14.00;99.90
26304;DHT22;57113;48.680;8.890;2022-11-10T07:54:06;14.00;99.90
26304;DHT22;57113;48.680;8.890;2022-11-10T07:56:32;14.00;99.90
26304;DHT22;57113;48.680;8.890;2022-11-10T07:58:57;14.00;99.90
26304;DHT22;57113;48.680;8.890;2022-11-10T08:01:23;14.10;99.90
26304;DHT22;57113;48.680;8.890;2022-11-10T08:03:48;14.10;99.90
26304;DHT22;57113;48.680;8.890;2022-11-10T08:06:14;14.20;99.90
26304;DHT22;57113;48.680;8.890;2022-11-10T08:08:39;14.20;99.90
26304;DHT22;57113;48.680;8.890;2022-11-10T08:11:05;14.20;99.90
26304;DHT22;57113;48.680;8.890;2022-11-10T08:13:30;14.30;99.90
26304;DHT22;57113;48.680;8.890;2022-11-10T08:15:56;14.30;99.90
26304;DHT22;57113;48.680;8.890;2022-11-10T08:18:23;14.40;99.90
26304;DHT22;57113;48.680;8.890;2022-11-10T08:20:49;14.40;99.90
26304;DHT22;57113;48.680;8.890;2022-11-10T08:23:14;14.40;99.90
26304;DHT22;57113;48.680;8.890;2022-11-10T08:25:40;14.40;99.90
26304;DHT22;57113;48.680;8.890;2022-11-10T08:28:07;14.10;99.90
26304;DHT22;57113;48.680;8.890;2022-11-10T08:30:34;14.00;99.90
26304;DHT22;57113;48.680;8.890;2022-11-10T08:33:01;14.00;99.90
26304;DHT22;57113;48.680;8.890;2022-11-10T08:35:28;14.10;99.90
26304;DHT22;57113;48.680;8.890;2022-11-10T08:37:54;14.20;99.90
26304;DHT22;57113;48.680;8.890;2022-11-10T08:40:19;14.30;99.90
26304;DHT22;57113;48.680;8.890;2022-11-10T08:42:46;14.30;99.90
26304;DHT22;57113;48.680;8.890;2022-11-10T08:45:12;14.40;99.90
26304;DHT22;57113;48.680;8.890;2022-11-10T08:47:37;14.40;99.90
26304;DHT22;57113;48.680;8.890;2022-11-10T08:50:03;14.50;99.90
26304;DHT22;57113;48.680;8.890;2022-11-10T08:52:29;14.50;99.90
26304;DHT22;57113;48.680;8.890;2022-11-10T08:54:54;14.60;99.90
26304;DHT22;57113;48.680;8.890;2022-11-10T08:57:20;14.70;99.90
26304;DHT22;57113;48.680;8.890;2022-11-10T08:59:45;14.70;99.90
26304;DHT22;57113;48.680;8.890;2022-11-10T09:02:11;14.80;99.90
26304;DHT22;57113;48.680;8.890;2022-11-10T09:04:36;14.80;99.90
26304;DHT22;57113;48.680;8.890;2022-11-10T09:07:02;14.80;99.90
26304;DHT22;57113;48.680;8.890;2022-11-10T09:09:27;14.90;99.90
26304;DHT22;57113;48.680;8.890;2022-11-10T09:11:53;14.90;99.90
26304;DHT22;57113;48.680;8.890;2022-11-10T09:14:18;14.90;99.90
26304;DHT22;57113;48.680;8.890;2022-11-10T09:16:44;15.00;99.90
26304;DHT22;57113;48.680;8.890;2022-11-10T09:19:10;15.00;99.90
26304;DHT22;57113;48.680;8.890;2022-11-10T09:21:35;15.10;99.90
26304;DHT22;57113;48.680;8.890;2022-11-10T09:24:00;15.10;99.90
26304;DHT22;57113;48.680;8.890;2022-11-10T09:26:26;15.10;99.90
26304;DHT22;57113;48.680;8.890;2022-11-10T09:28:51;15.10;99.90
26304;DHT22;57113;48.680;8.890;2022-11-10T09:31:17;15.20;99.90
26304;DHT22;57113;48.680;8.890;2022-11-10T09:33:42;15.20;99.90
26304;DHT22;57113;48.680;8.890;2022-11-10T09:36:08;15.20;99.90
26304;DHT22;57113;48.680;8.890;2022-11-10T09:38:33;15.20;99.90
26304;DHT22;57113;48.680;8.890;2022-11-10T09:43:33;15.30;99.90
26304;DHT22;57113;48.680;8.890;2022-11-10T09:46:02;15.30;99.90
26304;DHT22;57113;48.680;8.890;2022-11-10T09:48:30;15.30;99.90
26304;DHT22;57113;48.680;8.890;2022-11-10T09:50:58;15.30;99.90
26304;DHT22;57113;48.680;8.890;2022-11-10T09:56:04;15.40;99.90
26304;DHT22;57113;48.680;8.890;2022-11-10T09:58:36;15.40;99.90
26304;DHT22;57113;48.680;8.890;2022-11-10T10:03:32;15.40;99.90
26304;DHT22;57113;48.680;8.890;2022-11-10T10:06:01;15.40;99.90
26304;DHT22;57113;48.680;8.890;2022-11-10T10:09:15;15.50;99.90
26304;DHT22;57113;48.680;8.890;2022-11-10T10:16:26;15.50;99.90
26304;DHT22;57113;48.680;8.890;2022-11-10T10:18:58;15.60;99.90
26304;DHT22;57113;48.680;8.890;2022-11-10T10:23:56;15.50;99.90
26304;DHT22;57113;48.680;8.890;2022-11-10T10:26:26;15.60;99.90
26304;DHT22;57113;48.680;8.890;2022-11-10T10:28:52;15.60;99.90
26304;DHT22;57113;48.680;8.890;2022-11-10T10:31:24;15.60;99.90
26304;DHT22;57113;48.680;8.890;2022-11-10T10:33:51;15.60;99.90
26304;DHT22;57113;48.680;8.890;2022-11-10T10:38:46;15.60;99.90
26304;DHT22;57113;48.680;8.890;2022-11-10T10:41:30;15.70;99.90
26304;DHT22;57113;48.680;8.890;2022-11-10T10:43:57;15.60;99.90
26304;DHT22;57113;48.680;8.890;2022-11-10T10:46:23;15.60;99.90
26304;DHT22;57113;48.680;8.890;2022-11-10T10:51:39;15.70;99.90
26304;DHT22;57113;48.680;8.890;2022-11-10T10:54:14;15.70;99.90
26304;DHT22;57113;48.680;8.890;2022-11-10T10:56:46;15.70;99.90
26304;DHT22;57113;48.680;8.890;2022-11-10T10:59:16;15.70;99.90
26304;DHT22;57113;48.680;8.890;2022-11-10T11:01:43;15.70;99.90
26304;DHT22;57113;48.680;8.890;2022-11-10T11:04:50;15.70;99.90
26304;DHT22;57113;48.680;8.890;2022-11-10T11:07:01;15.70;99.90
26304;DHT22;57113;48.680;8.890;2022-11-10T11:09:42;15.70;99.90
26304;DHT22;57113;48.680;8.890;2022-11-10T11:12:12;15.70;99.90
26304;DHT22;57113;48.680;8.890;2022-11-10T11:14:37;15.70;99.90
26304;DHT22;57113;48.680;8.890;2022-11-10T11:17:24;15.70;99.90
26304;DHT22;57113;48.680;8.890;2022-11-10T11:19:49;15.70;99.90
26304;DHT22;57113;48.680;8.890;2022-11-10T11:32:30;15.70;99.90
26304;DHT22;57113;48.680;8.890;2022-11-10T11:35:13;15.70;99.90
26304;DHT22;57113;48.680;8.890;2022-11-10T11:40:45;15.70;99.90
26304;DHT22;57113;48.680;8.890;2022-11-10T11:43:12;15.80;99.90
26304;DHT22;57113;48.680;8.890;2022-11-10T12:01:05;15.70;99.90
26304;DHT22;57113;48.680;8.890;2022-11-10T12:06:11;15.60;99.90
26304;DHT22;57113;48.680;8.890;2022-11-10T12:08:52;15.60;99.90
26304;DHT22;57113;48.680;8.890;2022-11-10T12:11:36;15.70;99.90
26304;DHT22;57113;48.680;8.890;2022-11-10T12:17:09;15.70;99.90
26304;DHT22;57113;48.680;8.890;2022-11-10T12:19:50;15.70;99.90
26304;DHT22;57113;48.680;8.890;2022-11-10T12:25:04;15.70;99.90
26304;DHT22;57113;48.680;8.890;2022-11-10T12:27:36;15.60;99.90
26304;DHT22;57113;48.680;8.890;2022-11-10T12:30:08;15.70;99.90
26304;DHT22;57113;48.680;8.890;2022-11-10T12:35:20;15.60;99.90
26304;DHT22;57113;48.680;8.890;2022-11-10T12:37:51;15.70;99.90
26304;DHT22;57113;48.680;8.890;2022-11-10T12:40:19;15.70;99.90
26304;DHT22;57113;48.680;8.890;2022-11-10T12:42:55;15.60;99.90
26304;DHT22;57113;48.680;8.890;2022-11-10T12:45:24;15.60;99.90
26304;DHT22;57113;48.680;8.890;2022-11-10T12:47:50;15.70;99.90
26304;DHT22;57113;48.680;8.890;2022-11-10T12:50:30;15.70;99.90
26304;DHT22;57113;48.680;8.890;2022-11-10T12:52:58;15.70;99.90
26304;DHT22;57113;48.680;8.890;2022-11-10T12:55:36;15.70;99.90
26304;DHT22;57113;48.680;8.890;2022-11-10T12:58:03;15.70;99.90
26304;DHT22;57113;48.680;8.890;2022-11-10T13:00:30;15.70;99.90
26304;DHT22;57113;48.680;8.890;2022-11-10T13:02:56;15.70;99.90
26304;DHT22;57113;48.680;8.890;2022-11-10T13:05:24;15.70;99.90
26304;DHT22;57113;48.680;8.890;2022-11-10T13:08:02;15.70;99.90
26304;DHT22;57113;48.680;8.890;2022-11-10T13:10:29;15.70;99.90
26304;DHT22;57113;48.680;8.890;2022-11-10T13:18:10;15.70;99.90
26304;DHT22;57113;48.680;8.890;2022-11-10T13:20:49;15.70;99.90
26304;DHT22;57113;48.680;8.890;2022-11-10T13:23:24;15.70;99.90
26304;DHT22;57113;48.680;8.890;2022-11-10T13:26:00;15.70;99.90
26304;DHT22;57113;48.680;8.890;2022-11-10T13:36:35;15.70;99.90
26304;DHT22;57113;48.680;8.890;2022-11-10T13:39:14;15.60;99.90
26304;DHT22;57113;48.680;8.890;2022-11-10T13:41:46;15.70;99.90
26304;DHT22;57113;48.680;8.890;2022-11-10T13:44:18;15.60;99.90
26304;DHT22;57113;48.680;8.890;2022-11-10T13:59:41;15.60;99.90
26304;DHT22;57113;48.680;8.890;2022-11-10T14:04:52;15.70;99.90
26304;DHT22;57113;48.680;8.890;2022-11-10T14:07:18;15.60;99.90
26304;DHT22;57113;48.680;8.890;2022-11-10T14:09:45;15.70;99.90
26304;DHT22;57113;48.680;8.890;2022-11-10T14:17:21;15.70;99.90
26304;DHT22;57113;48.680;8.890;2022-11-10T14:19:48;15.70;99.90
26304;DHT22;57113;48.680;8.890;2022-11-10T14:27:21;15.50;99.90
26304;DHT22;57113;48.680;8.890;2022-11-10T14:29:46;15.40;99.90
26304;DHT22;57113;48.680;8.890;2022-11-10T14:32:16;15.40;99.90
26304;DHT22;57113;48.680;8.890;2022-11-10T14:34:46;15.40;99.90
26304;DHT22;57113;48.680;8.890;2022-11-10T14:37:22;15.30;99.90
26304;DHT22;57113;48.680;8.890;2022-11-10T14:39:52;15.30;99.90
26304;DHT22;57113;48.680;8.890;2022-11-10T14:42:19;15.30;99.90
26304;DHT22;57113;48.680;8.890;2022-11-10T14:44:45;15.30;99.90
26304;DHT22;57113;48.680;8.890;2022-11-10T14:50:01;15.30;99.90
26304;DHT22;57113;48.680;8.890;2022-11-10T14:52:27;15.20;99.90
26304;DHT22;57113;48.680;8.890;2022-11-10T14:54:52;15.30;99.90
26304;DHT22;57113;48.680;8.890;2022-11-10T14:57:18;15.30;99.90
26304;DHT22;57113;48.680;8.890;2022-11-10T14:59:43;15.30;99.90
26304;DHT22;57113;48.680;8.890;2022-11-10T15:02:12;15.30;99.90
26304;DHT22;57113;48.680;8.890;2022-11-10T15:04:38;15.30;99.90
26304;DHT22;57113;48.680;8.890;2022-11-10T15:07:05;15.20;99.90
26304;DHT22;57113;48.680;8.890;2022-11-10T15:09:31;15.20;99.90
26304;DHT22;57113;48.680;8.890;2022-11-10T15:17:00;15.20;99.90
26304;DHT22;57113;48.680;8.890;2022-11-10T15:19:27;15.20;99.90
26304;DHT22;57113;48.680;8.890;2022-11-10T15:21:53;15.20;99.90
26304;DHT22;57113;48.680;8.890;2022-11-10T15:24:18;15.20;99.90
26304;DHT22;57113;48.680;8.890;2022-11-10T15:26:44;15.20;99.90
26304;DHT22;57113;48.680;8.890;2022-11-10T15:29:20;15.20;99.90
26304;DHT22;57113;48.680;8.890;2022-11-10T15:31:46;15.10;99.90
26304;DHT22;57113;48.680;8.890;2022-11-10T15:34:27;15.10;99.90
26304;DHT22;57113;48.680;8.890;2022-11-10T15:37:11;15.10;99.90
26304;DHT22;57113;48.680;8.890;2022-11-10T15:39:37;15.10;99.90
26304;DHT22;57113;48.680;8.890;2022-11-10T15:42:10;15.10;99.90
26304;DHT22;57113;48.680;8.890;2022-11-10T15:44:37;15.10;99.90
26304;DHT22;57113;48.680;8.890;2022-11-10T15:47:02;15.00;99.90
26304;DHT22;57113;48.680;8.890;2022-11-10T15:49:35;15.00;99.90
26304;DHT22;57113;48.680;8.890;2022-11-10T15:52:04;15.00;99.90
26304;DHT22;57113;48.680;8.890;2022-11-10T15:54:32;15.00;99.90
26304;DHT22;57113;48.680;8.890;2022-11-10T15:56:58;15.00;99.90
26304;DHT22;57113;48.680;8.890;2022-11-10T15:59:23;15.00;99.90
26304;DHT22;57113;48.680;8.890;2022-11-10T16:01:49;15.00;99.90
26304;DHT22;57113;48.680;8.890;2022-11-10T16:04:15;15.10;99.90
26304;DHT22;57113;48.680;8.890;2022-11-10T16:06:40;15.10;99.90
26304;DHT22;57113;48.680;8.890;2022-11-10T16:09:06;15.10;99.90
26304;DHT22;57113;48.680;8.890;2022-11-10T16:11:33;15.10;99.90
26304;DHT22;57113;48.680;8.890;2022-11-10T16:14:00;15.10;99.90
26304;DHT22;57113;48.680;8.890;2022-11-10T16:16:26;15.00;99.90
26304;DHT22;57113;48.680;8.890;2022-11-10T16:18:53;15.00;99.90
26304;DHT22;57113;48.680;8.890;2022-11-10T16:21:19;15.00;99.90
26304;DHT22;57113;48.680;8.890;2022-11-10T16:23:45;15.00;99.90
26304;DHT22;57113;48.680;8.890;2022-11-10T16:26:15;15.00;99.90
26304;DHT22;57113;48.680;8.890;2022-11-10T16:28:41;15.00;99.90
26304;DHT22;57113;48.680;8.890;2022-11-10T16:31:11;15.00;99.90
26304;DHT22;57113;48.680;8.890;2022-11-10T16:33:37;15.10;99.90
26304;DHT22;57113;48.680;8.890;2022-11-10T16:36:02;15.10;99.90
26304;DHT22;57113;48.680;8.890;2022-11-10T16:38:29;15.10;99.90
26304;DHT22;57113;48.680;8.890;2022-11-10T16:41:09;15.00;99.90
26304;DHT22;57113;48.680;8.890;2022-11-10T16:43:35;15.00;99.90
26304;DHT22;57113;48.680;8.890;2022-11-10T16:46:01;15.00;99.90
26304;DHT22;57113;48.680;8.890;2022-11-10T16:48:29;15.00;99.90
26304;DHT22;57113;48.680;8.890;2022-11-10T16:50:56;15.00;99.90
26304;DHT22;57113;48.680;8.890;2022-11-10T16:53:23;15.00;99.90
26304;DHT22;57113;48.680;8.890;2022-11-10T16:55:49;15.00;99.90
26304;DHT22;57113;48.680;8.890;2022-11-10T16:58:14;15.00;99.90
26304;DHT22;57113;48.680;8.890;2022-11-10T17:00:40;15.00;99.90
26304;DHT22;57113;48.680;8.890;2022-11-10T17:06:04;15.00;99.90
26304;DHT22;57113;48.680;8.890;2022-11-10T17:08:30;15.00;99.90
26304;DHT22;57113;48.680;8.890;2022-11-10T17:10:57;15.00;99.90
26304;DHT22;57113;48.680;8.890;2022-11-10T17:13:23;15.00;99.90
26304;DHT22;57113;48.680;8.890;2022-11-10T17:15:49;15.00;99.90
26304;DHT22;57113;48.680;8.890;2022-11-10T17:18:17;15.00;99.90
26304;DHT22;57113;48.680;8.890;2022-11-10T17:20:44;15.00;99.90
26304;DHT22;57113;48.680;8.890;2022-11-10T17:23:11;15.00;99.90
26304;DHT22;57113;48.680;8.890;2022-11-10T17:25:37;15.00;99.90
26304;DHT22;57113;48.680;8.890;2022-11-10T17:28:03;15.00;99.90
26304;DHT22;57113;48.680;8.890;2022-11-10T17:30:29;15.00;99.90
26304;DHT22;57113;48.680;8.890;2022-11-10T17:32:54;15.00;99.90
26304;DHT22;57113;48.680;8.890;2022-11-10T17:35:21;15.00;99.90
26304;DHT22;57113;48.680;8.890;2022-11-10T17:37:48;14.70;99.90
26304;DHT22;57113;48.680;8.890;2022-11-10T17:40:19;14.30;99.90
26304;DHT22;57113;48.680;8.890;2022-11-10T17:42:45;14.20;99.90
26304;DHT22;57113;48.680;8.890;2022-11-10T17:45:21;14.20;99.90
26304;DHT22;57113;48.680;8.890;2022-11-10T17:47:47;14.30;99.90
26304;DHT22;57113;48.680;8.890;2022-11-10T17:50:13;14.40;99.90
26304;DHT22;57113;48.680;8.890;2022-11-10T17:52:39;14.40;99.90
26304;DHT22;57113;48.680;8.890;2022-11-10T17:55:05;14.50;99.90
26304;DHT22;57113;48.680;8.890;2022-11-10T17:57:31;14.50;99.90
26304;DHT22;57113;48.680;8.890;2022-11-10T17:59:56;14.50;99.90
26304;DHT22;57113;48.680;8.890;2022-11-10T18:02:22;14.60;99.90
26304;DHT22;57113;48.680;8.890;2022-11-10T18:04:47;14.60;99.90
26304;DHT22;57113;48.680;8.890;2022-11-10T18:07:13;14.60;99.90
26304;DHT22;57113;48.680;8.890;2022-11-10T18:09:38;14.60;99.90
26304;DHT22;57113;48.680;8.890;2022-11-10T18:12:04;14.60;99.90
26304;DHT22;57113;48.680;8.890;2022-11-10T18:14:30;14.60;99.90
26304;DHT22;57113;48.680;8.890;2022-11-10T18:16:58;14.60;99.90
26304;DHT22;57113;48.680;8.890;2022-11-10T18:19:24;14.60;99.90
26304;DHT22;57113;48.680;8.890;2022-11-10T18:21:49;14.60;99.90
26304;DHT22;57113;48.680;8.890;2022-11-10T18:24:15;14.70;99.90
26304;DHT22;57113;48.680;8.890;2022-11-10T18:26:40;14.70;99.90
26304;DHT22;57113;48.680;8.890;2022-11-10T18:29:06;14.70;99.90
26304;DHT22;57113;48.680;8.890;2022-11-10T18:31:32;14.70;99.90
26304;DHT22;57113;48.680;8.890;2022-11-10T18:33:57;14.70;99.90
26304;DHT22;57113;48.680;8.890;2022-11-10T18:36:23;14.70;99.90
26304;DHT22;57113;48.680;8.890;2022-11-10T18:38:48;14.70;99.90
26304;DHT22;57113;48.680;8.890;2022-11-10T18:41:14;14.70;99.90
26304;DHT22;57113;48.680;8.890;2022-11-10T18:43:58;14.70;99.90
26304;DHT22;57113;48.680;8.890;2022-11-10T18:46:23;14.70;99.90
26304;DHT22;57113;48.680;8.890;2022-11-10T18:48:49;14.60;99.90
26304;DHT22;57113;48.680;8.890;2022-11-10T18:51:14;14.70;99.90
26304;DHT22;57113;48.680;8.890;2022-11-10T18:53:40;14.60;99.90
26304;DHT22;57113;48.680;8.890;2022-11-10T18:56:06;14.70;99.90
26304;DHT22;57113;48.680;8.890;2022-11-10T18:58:31;14.70;99.90
26304;DHT22;57113;48.680;8.890;2022-11-10T19:01:00;14.70;99.90
26304;DHT22;57113;48.680;8.890;2022-11-10T19:03:26;14.70;99.90
26304;DHT22;57113;48.680;8.890;2022-11-10T19:05:51;14.70;99.90
26304;DHT22;57113;48.680;8.890;2022-11-10T19:08:17;14.70;99.90
26304;DHT22;57113;48.680;8.890;2022-11-10T19:10:43;14.70;99.90
26304;DHT22;57113;48.680;8.890;2022-11-10T19:13:08;14.60;99.90